Time;durP1;ratioP1;P1;durP2;ratioP2;P2;SDS_P1;SDS_P2;PMS_P1;PMS_P2;Temp;Humidity;BMP_temperature;BMP_pressure;BME280_temperature;BME280_humidity;BME280_pressure;Samples;Min_cycle;Max_cycle;Signal;HPM_P1;HPM_P2
2022/01/27 00:08:13;;;;;;;0.00;0.00;;;;;;;4.06;100.00;102071.25;10368221;28;20113;-70
2022/01/27 00:13:16;;;;;;;0.00;0.00;;;;;;;4.08;100.00;102050.94;10356042;28;20031;-70
2022/01/27 00:18:18;;;;;;;0.00;0.00;;;;;;;4.08;100.00;102037.75;10327085;28;20104;-69
2022/01/27 00:23:18;;;;;;;0.00;0.00;;;;;;;4.10;100.00;102014.75;10326848;28;20018;-69
2022/01/27 00:28:18;;;;;;;0.00;0.00;;;;;;;4.11;100.00;101979.56;10342193;28;20068;-69
2022/01/27 00:33:19;;;;;;;0.00;0.00;;;;;;;4.12;100.00;101983.88;10366961;28;20053;-69
2022/01/27 00:38:19;;;;;;;0.00;0.00;;;;;;;4.15;100.00;101964.41;10367219;28;20115;-70
2022/01/27 00:43:20;;;;;;;0.00;0.00;;;;;;;4.17;100.00;101966.03;10366600;28;20025;-69
2022/01/27 00:48:20;;;;;;;0.00;0.00;;;;;;;4.21;100.00;101958.75;10366658;28;20100;-69
2022/01/27 00:53:41;;;;;;;0.00;0.00;;;;;;;4.25;100.00;101955.03;10366648;28;20052;-69
2022/01/27 00:58:59;;;;;;;0.00;0.00;;;;;;;4.24;100.00;101948.88;10360938;28;20026;-69
2022/01/27 01:04:02;;;;;;;0.00;0.00;;;;;;;4.25;100.00;101936.56;10365921;28;20030;-69
2022/01/27 01:09:52;;;;;;;0.00;0.00;;;;;;;4.24;100.00;101916.38;10369414;28;20032;-69
2022/01/27 01:35:11;;;;;;;0.00;0.00;;;;;;;4.28;100.00;101881.00;10372491;28;20060;-69
2022/01/27 01:40:15;;;;;;;0.00;0.00;;;;;;;4.28;100.00;101873.94;10372267;28;20025;-69
2022/01/27 01:45:19;;;;;;;0.00;0.00;;;;;;;4.30;100.00;101866.78;10371744;28;20029;-70
2022/01/27 01:50:19;;;;;;;0.00;0.00;;;;;;;4.32;100.00;101861.41;10371590;28;20025;-70
2022/01/27 01:55:19;;;;;;;0.00;0.00;;;;;;;4.32;100.00;101869.31;10371168;28;20485;-70
2022/01/27 02:00:20;;;;;;;0.00;0.00;;;;;;;4.32;100.00;101856.97;10371590;28;20748;-70
2022/01/27 02:05:24;;;;;;;0.00;0.00;;;;;;;4.35;100.00;101866.47;10365484;28;20059;-69
2022/01/27 02:17:58;;;;;;;0.00;0.00;;;;;;;4.37;100.00;101859.31;10372340;28;20030;-69
2022/01/27 02:21:19;;;;;;;0.00;0.00;;;;;;;4.37;100.00;101806.56;10369568;28;20026;-68
2022/01/27 02:26:19;;;;;;;0.00;0.00;;;;;;;4.35;100.00;101808.44;10370264;28;20034;-68
2022/01/27 02:31:19;;;;;;;0.00;0.00;;;;;;;4.30;100.00;101773.59;10369749;28;20018;-69
2022/01/27 02:36:19;;;;;;;0.00;0.00;;;;;;;4.30;100.00;101773.59;10369842;28;20059;-69
2022/01/27 02:41:22;;;;;;;0.00;0.00;;;;;;;4.31;100.00;101783.22;10368496;28;20029;-69
2022/01/27 02:46:30;;;;;;;0.00;0.00;;;;;;;4.30;100.00;101787.66;10363467;28;20481;-70
2022/01/27 02:51:34;;;;;;;0.00;0.00;;;;;;;4.32;100.00;101780.47;10367932;28;20029;-69
2022/01/27 02:56:38;;;;;;;0.00;0.00;;;;;;;4.36;100.00;101798.75;10369279;28;20042;-68
2022/01/27 03:01:39;;;;;;;0.00;0.00;;;;;;;4.36;100.00;101777.63;10367106;28;20025;-69
2022/01/27 03:06:39;;;;;;;0.00;0.00;;;;;;;4.36;100.00;101777.63;10367918;28;20026;-69
2022/01/27 03:11:48;;;;;;;0.00;0.00;;;;;;;4.34;100.00;101764.56;10368232;28;20053;-69
2022/01/27 03:16:49;;;;;;;0.00;0.00;;;;;;;4.32;100.00;101743.53;10368599;28;20037;-69
2022/01/27 03:21:50;;;;;;;0.00;0.00;;;;;;;4.30;100.00;101736.66;10369570;22;20484;-69
2022/01/27 03:26:52;;;;;;;0.00;0.00;;;;;;;4.29;100.00;101743.72;10363987;28;20036;-69
2022/01/27 03:31:53;;;;;;;0.00;0.00;;;;;;;4.24;100.00;101726.50;10356798;28;20030;-69
2022/01/27 03:36:53;;;;;;;0.00;0.00;;;;;;;4.18;100.00;101713.69;10351079;28;20021;-69
2022/01/27 03:41:56;;;;;;;0.00;0.00;;;;;;;4.12;100.00;101703.53;10360536;28;20021;-69
2022/01/27 03:46:56;;;;;;;0.00;0.00;;;;;;;4.05;100.00;101692.53;10344968;28;20014;-70
2022/01/27 03:52:00;;;;;;;0.00;0.00;;;;;;;3.97;100.00;101679.81;10341993;28;20033;-69
2022/01/27 03:57:00;;;;;;;0.00;0.00;;;;;;;3.92;100.00;101663.44;10326287;28;20027;-70
2022/01/27 04:02:04;;;;;;;0.00;0.00;;;;;;;3.89;100.00;101660.16;10363747;28;20033;-69
2022/01/27 04:07:04;;;;;;;0.00;0.00;;;;;;;3.87;100.00;101670.81;10349376;28;20040;-70
2022/01/27 04:12:05;;;;;;;0.00;0.00;;;;;;;3.86;100.00;101654.13;10337818;28;20343;-69
2022/01/27 04:17:05;;;;;;;0.00;0.00;;;;;;;3.84;100.00;101663.94;10327802;28;20759;-68
2022/01/27 04:22:06;;;;;;;0.00;0.00;;;;;;;3.83;100.00;101671.94;10336009;28;20030;-68
2022/01/27 04:27:16;;;;;;;0.00;0.00;;;;;;;3.82;100.00;101659.69;10349796;28;20121;-69
2022/01/27 04:32:22;;;;;;;0.00;0.00;;;;;;;3.82;100.00;101646.53;10344508;28;20093;-69
2022/01/27 04:37:25;;;;;;;0.00;0.00;;;;;;;3.82;100.00;101633.34;10336444;28;20104;-70
2022/01/27 04:42:42;;;;;;;0.00;0.00;;;;;;;3.80;100.00;101632.59;10336087;28;20022;-68
2022/01/27 04:47:47;;;;;;;0.00;0.00;;;;;;;3.80;100.00;101611.50;10351091;28;20216;-69
2022/01/27 04:52:49;;;;;;;;;;;;;;;3.78;100.00;101603.72;10357807;28;20401;-69
2022/01/27 04:58:04;;;;;;;0.00;0.00;;;;;;;3.77;100.00;101603.78;10354733;28;19917;-70
2022/01/27 05:03:14;;;;;;;0.00;0.00;;;;;;;3.74;100.00;101591.66;10358440;28;20037;-70
2022/01/27 05:08:18;;;;;;;0.00;0.00;;;;;;;3.74;100.00;101585.53;10368190;28;20034;-70
2022/01/27 05:13:20;;;;;;;0.00;0.00;;;;;;;3.73;100.00;101573.31;10356182;28;20026;-69
2022/01/27 05:18:21;;;;;;;0.00;0.00;;;;;;;3.75;100.00;101574.06;10364385;28;20031;-69
2022/01/27 05:23:21;;;;;;;0.00;0.00;;;;;;;3.77;100.00;101566.91;10367220;28;20461;-70
2022/01/27 05:28:21;;;;;;;0.00;0.00;;;;;;;3.78;100.00;101563.31;10354225;28;20026;-69
2022/01/27 05:33:22;;;;;;;0.00;0.00;;;;;;;3.78;100.00;101565.94;10382463;28;20033;-69
2022/01/27 05:38:22;;;;;;;0.05;0.05;;;;;;;3.73;100.00;101542.53;10367919;28;20324;-69
2022/01/27 05:43:23;;;;;;;0.00;0.00;;;;;;;3.76;100.00;101542.34;10364947;28;20040;-71
2022/01/27 05:48:23;;;;;;;0.00;0.00;;;;;;;3.76;100.00;101549.41;10378871;28;20472;-69
2022/01/27 05:53:24;;;;;;;0.00;0.00;;;;;;;3.78;100.00;101539.59;10370337;28;20105;-70
2022/01/27 05:58:25;;;;;;;0.00;0.00;;;;;;;3.79;100.00;101531.59;10373588;28;20269;-70
2022/01/27 06:03:25;;;;;;;0.00;0.00;;;;;;;3.80;100.00;101519.28;10351865;28;20484;-69
2022/01/27 06:08:28;;;;;;;0.00;0.00;;;;;;;3.81;100.00;101511.28;10379146;28;20022;-70
2022/01/27 06:13:29;;;;;;;0.00;0.00;;;;;;;3.83;100.00;101503.25;10364771;28;20265;-69
2022/01/27 06:18:29;;;;;;;0.00;0.00;;;;;;;3.85;100.00;101483.78;10331397;28;20014;-69
2022/01/27 06:23:29;;;;;;;0.00;0.00;;;;;;;3.87;100.00;101502.13;10386635;28;20037;-69
2022/01/27 06:28:30;;;;;;;0.00;0.00;;;;;;;3.91;100.00;101497.50;10369939;28;20025;-69
2022/01/27 06:33:30;;;;;;;0.00;0.00;;;;;;;3.92;100.00;101488.63;10334716;28;20109;-69
2022/01/27 06:38:30;;;;;;;0.00;0.00;;;;;;;3.92;100.00;101483.38;10331204;28;20116;-69
2022/01/27 06:43:31;;;;;;;0.00;0.00;;;;;;;3.94;100.00;101484.97;10357189;28;20034;-69
2022/01/27 06:48:31;;;;;;;0.00;0.00;;;;;;;3.95;100.00;101489.28;10373741;28;20141;-69
2022/01/27 06:53:32;;;;;;;0.00;0.00;;;;;;;3.95;100.00;101483.16;10374561;28;20030;-70
2022/01/27 06:58:34;;;;;;;0.00;0.00;;;;;;;3.97;100.00;101482.13;10361675;28;20028;-69
2022/01/27 07:03:34;;;;;;;0.00;0.00;;;;;;;3.97;100.00;101490.03;10356788;28;20268;-70
2022/01/27 07:08:34;;;;;;;0.00;0.00;;;;;;;4.00;100.00;101478.44;10373496;28;20356;-69
2022/01/27 07:13:40;;;;;;;0.00;0.00;;;;;;;4.02;100.00;101484.47;10352335;28;20148;-70
2022/01/27 07:18:40;;;;;;;0.00;0.00;;;;;;;4.03;100.00;101470.34;10369557;28;20045;-70
2022/01/27 07:23:41;;;;;;;0.00;0.00;;;;;;;4.04;100.00;101466.75;10365185;28;20025;-70
2022/01/27 07:28:42;;;;;;;0.10;0.10;;;;;;;4.04;100.00;101462.34;10348812;28;20079;-68
2022/01/27 07:33:42;;;;;;;0.00;0.00;;;;;;;4.06;100.00;101468.34;10366003;28;20061;-70
2022/01/27 07:38:43;;;;;;;0.00;0.00;;;;;;;4.08;100.00;101466.44;10400641;28;20539;-69
2022/01/27 07:43:44;;;;;;;0.00;0.00;;;;;;;4.11;100.00;101460.13;10398007;28;20156;-70
2022/01/27 07:48:45;;;;;;;0.00;0.00;;;;;;;4.13;100.00;101441.56;10348368;28;20076;-69
2022/01/27 07:53:45;;;;;;;0.00;0.00;;;;;;;4.16;100.00;101454.53;10366302;28;20022;-69
2022/01/27 07:58:46;;;;;;;0.00;0.00;;;;;;;4.20;100.00;101435.78;10374612;28;20255;-69
2022/01/27 08:03:46;;;;;;;0.00;0.00;;;;;;;4.25;100.00;101438.13;10354697;28;20027;-69
2022/01/27 08:08:47;;;;;;;0.00;0.00;;;;;;;4.29;100.00;101439.59;10346931;28;20423;-70
2022/01/27 08:13:48;;;;;;;0.00;0.00;;;;;;;4.32;100.00;101429.69;10337647;28;20026;-69
2022/01/27 08:18:48;;;;;;;0.00;0.00;;;;;;;4.38;100.00;101422.31;10355699;28;20018;-70
2022/01/27 08:23:51;;;;;;;0.00;0.00;;;;;;;4.40;100.00;101426.53;10371159;28;20017;-70
2022/01/27 08:28:59;;;;;;;0.00;0.00;;;;;;;4.43;100.00;101422.84;10382959;28;20075;-70
2022/01/27 08:34:03;;;;;;;0.00;0.00;;;;;;;4.47;100.00;101411.97;10375328;28;20019;-70
2022/01/27 08:39:03;;;;;;;0.00;0.00;;;;;;;4.52;100.00;101409.84;10367156;28;20026;-70
2022/01/27 08:44:04;;;;;;;0.00;0.00;;;;;;;4.58;100.00;101405.94;10369847;28;20042;-69
2022/01/27 08:49:06;;;;;;;0.00;0.00;;;;;;;4.63;100.00;101395.94;10353978;28;20041;-70
2022/01/27 08:54:06;;;;;;;0.00;0.00;;;;;;;4.72;100.00;101410.28;10386791;28;20049;-70
2022/01/27 08:59:06;;;;;;;0.00;0.00;;;;;;;4.79;100.00;101413.31;10373314;28;20076;-70
2022/01/27 09:04:07;;;;;;;0.00;0.00;;;;;;;4.83;100.00;101404.22;10373023;28;20022;-69
2022/01/27 09:09:08;;;;;;;0.00;0.00;;;;;;;4.86;100.00;101410.16;10372635;28;20759;-70
2022/01/27 09:14:09;;;;;;;0.00;0.00;;;;;;;4.92;100.00;101406.25;10349370;28;20105;-70
2022/01/27 09:19:10;;;;;;;0.00;0.00;;;;;;;4.94;100.00;101401.69;10358853;28;20405;-70
2022/01/27 09:24:14;;;;;;;0.00;0.00;;;;;;;4.97;100.00;101389.13;10378838;22;20038;-71
2022/01/27 09:29:17;;;;;;;0.10;0.10;;;;;;;5.04;100.00;101389.53;10355973;28;20088;-72
2022/01/27 09:34:18;;;;;;;0.00;0.00;;;;;;;5.08;100.00;101382.22;10369194;28;20029;-70
2022/01/27 09:39:19;;;;;;;0.00;0.00;;;;;;;5.11;100.00;101385.47;10370234;28;20117;-71
2022/01/27 09:44:24;;;;;;;0.00;0.00;;;;;;;5.17;100.00;101382.38;10364858;28;20108;-71
2022/01/27 09:49:41;;;;;;;0.00;0.00;;;;;;;5.21;100.00;101390.97;10355490;28;20022;-70
2022/01/27 09:54:44;;;;;;;0.00;0.00;;;;;;;5.23;100.00;101383.75;10362994;28;20029;-71
2022/01/27 09:59:46;;;;;;;0.00;0.00;;;;;;;5.28;100.00;101386.06;10358544;28;20021;-71
2022/01/27 10:04:57;;;;;;;0.00;0.00;;;;;;;5.33;100.00;101379.50;10358778;28;20018;-70
2022/01/27 10:10:07;;;;;;;0.00;0.00;;;;;;;5.39;100.00;101389.63;10360859;28;20485;-71
2022/01/27 10:15:11;;;;;;;0.00;0.00;;;;;;;5.47;100.00;101390.84;10365992;28;20048;-71
2022/01/27 10:20:17;;;;;;;0.00;0.00;;;;;;;5.55;100.00;101388.50;10366544;28;20022;-71
2022/01/27 10:25:21;;;;;;;0.00;0.00;;;;;;;5.69;100.00;101396.25;10365131;28;20112;-71
2022/01/27 10:35:26;;;;;;;0.00;0.00;;;;;;;5.92;100.00;101414.84;10353277;28;20026;-71
2022/01/27 10:40:44;;;;;;;0.00;0.00;;;;;;;6.04;100.00;101406.03;10365933;28;20021;-71
2022/01/27 10:45:59;;;;;;;0.00;0.00;;;;;;;6.20;100.00;101409.19;10365991;28;20450;-71
2022/01/27 10:56:03;;;;;;;0.00;0.00;;;;;;;6.57;100.00;101399.28;10362145;28;20018;-71
2022/01/27 11:01:04;;;;;;;0.00;0.00;;;;;;;6.70;100.00;101399.16;10334257;28;20049;-71
2022/01/27 11:06:09;;;;;;;0.00;0.00;;;;;;;6.81;100.00;101395.69;10325220;28;20025;-71
2022/01/27 11:11:10;;;;;;;0.00;0.00;;;;;;;6.84;100.00;101400.72;10350270;28;20117;-71
2022/01/27 11:16:14;;;;;;;0.00;0.00;;;;;;;6.88;100.00;101388.91;10338230;28;20109;-71
2022/01/27 11:21:33;;;;;;;0.10;0.10;;;;;;;6.89;100.00;101389.75;10328756;28;20070;-70
2022/01/27 11:26:37;;;;;;;0.00;0.00;;;;;;;7.05;100.00;101392.88;10326623;28;20030;-71
2022/01/27 11:31:57;;;;;;;0.00;0.00;;;;;;;7.21;100.00;101406.59;10327502;28;20029;-70
2022/01/27 11:37:00;;;;;;;0.10;0.10;;;;;;;7.31;100.00;101389.97;10319199;28;20032;-71
2022/01/27 11:42:00;;;;;;;0.00;0.00;;;;;;;7.45;100.00;101384.38;10326302;28;20037;-71
2022/01/27 11:47:14;;;;;;;0.10;0.10;;;;;;;7.54;100.00;101386.28;10347406;28;20025;-70
2022/01/27 11:52:19;;;;;;;0.10;0.10;;;;;;;7.49;100.00;101377.84;10353464;28;20076;-70
2022/01/27 11:57:43;;;;;;;0.00;0.00;;;;;;;7.45;100.00;101371.13;10357761;28;20018;-70
2022/01/27 12:02:56;;;;;;;0.00;0.00;;;;;;;7.43;100.00;101355.34;10354838;28;20025;-70
2022/01/27 12:08:19;;;;;;;0.00;0.00;;;;;;;7.50;100.00;101371.56;10363538;28;20389;-70
2022/01/27 12:14:28;;;;;;;0.00;0.00;;;;;;;7.60;100.00;101372.50;10343348;28;20033;-71
2022/01/27 12:19:02;;;;;;;0.10;0.10;;;;;;;7.63;100.00;101363.47;10353022;28;20023;-70
2022/01/27 12:29:12;;;;;;;0.00;0.00;;;;;;;7.45;100.00;101358.72;10355442;28;20026;-70
2022/01/27 12:34:12;;;;;;;0.00;0.00;;;;;;;7.44;100.00;101356.16;10355818;28;20040;-70
2022/01/27 12:39:22;;;;;;;0.00;0.00;;;;;;;7.41;100.00;101351.13;10358047;28;20457;-70
2022/01/27 12:44:23;;;;;;;0.10;0.10;;;;;;;7.60;100.00;101361.06;10352294;28;20474;-70
2022/01/27 12:49:42;;;;;;;0.00;0.00;;;;;;;7.75;100.00;101348.34;10347178;28;20027;-70
2022/01/27 12:54:43;;;;;;;0.05;0.05;;;;;;;7.77;100.00;101347.25;10351761;28;20397;-70
2022/01/27 12:59:44;;;;;;;0.00;0.00;;;;;;;7.71;100.00;101353.06;10350096;28;20018;-70
2022/01/27 13:04:45;;;;;;;0.00;0.00;;;;;;;7.60;100.00;101356.59;10358746;28;20018;-70
2022/01/27 13:10:01;;;;;;;0.10;0.10;;;;;;;7.52;100.00;101345.78;10359618;28;20651;-70
2022/01/27 13:15:09;;;;;;;0.10;0.10;;;;;;;7.38;100.00;101338.97;10364695;28;20034;-70
2022/01/27 13:20:17;;;;;;;0.03;0.03;;;;;;;7.28;100.00;101346.00;10356692;28;20014;-70
2022/01/27 13:25:20;;;;;;;0.00;0.00;;;;;;;7.30;100.00;101333.47;10366899;28;20022;-70
2022/01/27 13:30:21;;;;;;;0.00;0.00;;;;;;;7.38;100.00;101346.91;10363425;28;20053;-70
2022/01/27 13:35:22;;;;;;;0.10;0.10;;;;;;;7.38;100.00;101341.59;10334771;28;20577;-70
2022/01/27 13:45:46;;;;;;;0.00;0.00;;;;;;;7.38;100.00;101346.06;10369784;28;20030;-70
2022/01/27 13:51:00;;;;;;;0.00;0.00;;;;;;;7.36;100.00;101362.13;10370472;28;20108;-70
2022/01/27 13:56:04;;;;;;;0.00;0.00;;;;;;;7.37;100.00;101365.59;10365933;28;20428;-70
2022/01/27 14:01:08;;;;;;;0.00;0.00;;;;;;;7.30;100.00;101367.06;10359767;28;20579;-70
2022/01/27 14:06:08;;;;;;;0.10;0.10;;;;;;;7.25;100.00;101333.00;10354745;28;20026;-69
2022/01/27 14:11:11;;;;;;;0.10;0.10;;;;;;;7.24;100.00;101341.91;10364015;28;20030;-70
2022/01/27 14:16:11;;;;;;;0.00;0.00;;;;;;;7.15;100.00;101355.88;10354244;28;20083;-70
2022/01/27 14:21:21;;;;;;;0.10;0.10;;;;;;;7.10;100.00;101353.63;10362916;28;20080;-69
2022/01/27 14:26:35;;;;;;;0.10;0.10;;;;;;;7.10;100.00;101363.38;10363519;28;20118;-70
2022/01/27 14:31:37;;;;;;;0.00;0.00;;;;;;;7.11;100.00;101370.38;10360501;28;20022;-70
2022/01/27 14:36:41;;;;;;;0.00;0.00;;;;;;;6.97;100.00;101363.50;10360378;28;20064;-70
2022/01/27 14:41:41;;;;;;;0.10;0.10;;;;;;;6.85;100.00;101353.91;10355840;28;20458;-69
2022/01/27 14:46:45;;;;;;;0.00;0.00;;;;;;;6.75;100.00;101354.63;10361008;28;20106;-70
2022/01/27 14:51:46;;;;;;;0.00;0.00;;;;;;;6.67;100.00;101356.22;10360641;28;20141;-70
2022/01/27 14:56:49;;;;;;;0.00;0.00;;;;;;;6.59;100.00;101362.09;10367958;28;20278;-70
2022/01/27 15:01:49;;;;;;;0.00;0.00;;;;;;;6.53;100.00;101360.75;10362127;28;20032;-70
2022/01/27 15:06:50;;;;;;;0.00;0.00;;;;;;;6.48;100.00;101367.38;10370541;28;20469;-70
2022/01/27 15:11:50;;;;;;;0.10;0.10;;;;;;;6.41;100.00;101371.47;10370234;28;20389;-70
2022/01/27 15:22:10;;;;;;;0.08;0.08;;;;;;;6.22;100.00;101372.88;10389336;22;20343;-70
2022/01/27 15:27:10;;;;;;;0.00;0.00;;;;;;;5.96;100.00;101372.22;10416405;28;20292;-70
2022/01/27 15:32:13;;;;;;;0.00;0.00;;;;;;;5.74;100.00;101375.59;10421113;28;20486;-69
2022/01/27 15:37:14;;;;;;;0.00;0.00;;;;;;;5.48;100.00;101372.25;10410558;28;20559;-69
2022/01/27 15:42:15;;;;;;;0.00;0.00;;;;;;;5.30;100.00;101368.31;10410033;28;20066;-68
2022/01/27 15:47:16;;;;;;;0.00;0.00;;;;;;;5.14;100.00;101379.97;10410346;28;20029;-68
2022/01/27 15:52:16;;;;;;;0.05;0.05;;;;;;;5.03;100.00;101376.41;10409748;28;20028;-69
2022/01/27 15:57:16;;;;;;;0.00;0.00;;;;;;;4.94;100.00;101388.47;10409767;28;20388;-69
2022/01/27 16:02:18;;;;;;;0.00;0.00;;;;;;;4.89;100.00;101393.25;10408111;28;20673;-68
2022/01/27 16:07:18;;;;;;;0.00;0.00;;;;;;;4.85;100.00;101392.59;10410131;28;20029;-69
2022/01/27 16:12:19;;;;;;;0.10;0.10;;;;;;;4.89;100.00;101401.19;10407931;28;20025;-68
2022/01/27 16:17:20;;;;;;;0.00;0.00;;;;;;;4.99;100.00;101408.31;10409764;28;20037;-69
2022/01/27 16:22:25;;;;;;;0.00;0.00;;;;;;;5.04;100.00;101404.53;10408870;28;20025;-69
2022/01/27 16:27:25;;;;;;;0.00;0.00;;;;;;;5.11;100.00;101416.31;10409273;28;20026;-68
2022/01/27 16:32:27;;;;;;;0.00;0.00;;;;;;;5.05;100.00;101422.06;10408685;28;20104;-68
2022/01/27 16:37:27;;;;;;;0.00;0.00;;;;;;;4.91;100.00;101434.41;10409394;28;20481;-68
2022/01/27 16:42:27;;;;;;;0.00;0.00;;;;;;;4.76;100.00;101433.69;10416519;28;20071;-69
2022/01/27 16:47:28;;;;;;;0.00;0.00;;;;;;;4.62;100.00;101441.72;10417139;28;20033;-69
2022/01/27 16:52:28;;;;;;;0.00;0.00;;;;;;;4.59;100.00;101443.72;10416577;28;20322;-68
2022/01/27 16:57:29;;;;;;;0.00;0.00;;;;;;;4.59;100.00;101441.09;10414978;28;20365;-69
2022/01/27 17:02:30;;;;;;;0.00;0.00;;;;;;;4.59;100.00;101434.00;10416073;28;20033;-68
2022/01/27 17:07:30;;;;;;;0.00;0.00;;;;;;;4.56;100.00;101428.09;10416376;28;20468;-68
2022/01/27 17:12:30;;;;;;;0.00;0.00;;;;;;;4.58;100.00;101434.13;10412023;28;20491;-69
2022/01/27 17:17:31;;;;;;;0.00;0.00;;;;;;;4.62;100.00;101415.31;10414604;28;20618;-68
2022/01/27 17:22:32;;;;;;;0.00;0.00;;;;;;;4.76;100.00;101435.50;10415331;28;20272;-69
2022/01/27 17:27:34;;;;;;;0.10;0.10;;;;;;;4.84;100.00;101425.25;10414300;28;20278;-69
2022/01/27 17:32:36;;;;;;;0.00;0.00;;;;;;;4.82;100.00;101418.38;10413865;28;20021;-69
2022/01/27 17:37:37;;;;;;;0.00;0.00;;;;;;;4.76;100.00;101435.50;10414039;28;20026;-69
2022/01/27 17:42:50;;;;;;;0.00;0.00;;;;;;;4.69;100.00;101445.63;10413027;28;20021;-68
2022/01/27 17:47:52;;;;;;;0.00;0.00;;;;;;;4.57;100.00;101432.44;10414848;28;20018;-69
2022/01/27 17:52:53;;;;;;;0.00;0.00;;;;;;;4.45;100.00;101434.97;10414017;28;20017;-68
2022/01/27 17:57:53;;;;;;;0.00;0.00;;;;;;;4.41;100.00;101441.41;10414225;28;20480;-69
2022/01/27 18:02:55;;;;;;;0.00;0.00;;;;;;;4.47;100.00;101464.72;10413895;28;20477;-69
2022/01/27 18:07:56;;;;;;;0.00;0.00;;;;;;;4.47;100.00;101459.44;10412807;28;20032;-69
2022/01/27 18:12:56;;;;;;;0.00;0.00;;;;;;;4.47;100.00;101451.53;10412843;28;20461;-68
2022/01/27 18:17:56;;;;;;;0.00;0.00;;;;;;;4.44;100.00;101453.53;10413614;28;20030;-69
2022/01/27 18:22:57;;;;;;;0.00;0.00;;;;;;;4.42;100.00;101460.69;10412741;28;20094;-69
2022/01/27 18:27:57;;;;;;;0.00;0.00;;;;;;;4.37;100.00;101454.91;10382548;28;20687;-69
2022/01/27 18:32:58;;;;;;;0.00;0.00;;;;;;;4.37;100.00;101452.28;10395431;28;20076;-68
2022/01/27 18:37:58;;;;;;;0.00;0.00;;;;;;;4.30;100.00;101452.69;10388595;28;20319;-68
2022/01/27 18:42:58;;;;;;;0.00;0.00;;;;;;;4.23;100.00;101456.69;10393807;28;20018;-68
2022/01/27 18:47:59;;;;;;;0.00;0.00;;;;;;;4.22;100.00;101459.44;10374549;28;20477;-68
2022/01/27 18:52:59;;;;;;;0.00;0.00;;;;;;;4.18;100.00;101474.59;10369351;28;20041;-68
2022/01/27 18:58:00;;;;;;;0.00;0.00;;;;;;;4.13;100.00;101467.94;10369860;28;20076;-68
2022/01/27 19:03:00;;;;;;;0.00;0.00;;;;;;;4.06;100.00;101465.69;10368527;28;20040;-68
2022/01/27 19:08:00;;;;;;;0.00;0.00;;;;;;;4.04;100.00;101483.44;10369780;28;20021;-68
2022/01/27 19:13:02;;;;;;;0.00;0.00;;;;;;;3.97;100.00;101482.13;10371698;28;20026;-68
2022/01/27 19:18:06;;;;;;;0.00;0.00;;;;;;;3.94;100.00;101478.84;10397892;28;20113;-68
2022/01/27 19:23:08;;;;;;;0.00;0.00;;;;;;;3.92;100.00;101500.03;10385757;28;20053;-68
2022/01/27 19:28:09;;;;;;;0.00;0.00;;;;;;;3.90;100.00;101499.31;10368787;28;20140;-69
2022/01/27 19:33:10;;;;;;;0.00;0.00;;;;;;;3.89;100.00;101529.22;10368173;28;20500;-69
2022/01/27 19:38:10;;;;;;;0.00;0.00;;;;;;;3.89;100.00;101521.31;10368391;28;20030;-69
2022/01/27 19:43:11;;;;;;;0.00;0.00;;;;;;;3.93;100.00;101543.06;10376293;28;20436;-68
2022/01/27 19:48:12;;;;;;;0.00;0.00;;;;;;;3.93;100.00;101548.34;10368494;28;20037;-68
2022/01/27 19:53:13;;;;;;;0.00;0.00;;;;;;;3.80;100.00;101564.06;10366120;28;20288;-68
2022/01/27 19:58:13;;;;;;;0.00;0.00;;;;;;;3.70;100.00;101562.97;10406015;28;20396;-68
2022/01/27 20:03:14;;;;;;;0.00;0.00;;;;;;;3.60;100.00;101563.53;10399917;28;20017;-68
2022/01/27 20:08:14;;;;;;;0.00;0.00;;;;;;;3.54;100.00;101561.28;10408264;28;20496;-68
2022/01/27 20:13:16;;;;;;;0.00;0.00;;;;;;;3.50;100.00;101536.09;10386181;28;20104;-68
2022/01/27 20:18:20;;;;;;;0.00;0.00;;;;;;;3.47;100.00;101552.09;10376521;28;20277;-68
2022/01/27 20:23:24;;;;;;;0.00;0.00;;;;;;;3.49;100.00;101550.22;10375319;28;20054;-68
2022/01/27 20:28:24;;;;;;;0.00;0.00;;;;;;;3.59;100.00;101568.91;10375557;28;20476;-69
2022/01/27 20:33:25;;;;;;;0.00;0.00;;;;;;;3.63;100.00;101579.13;10374775;28;20025;-69
2022/01/27 20:38:26;;;;;;;0.00;0.00;;;;;;;3.60;100.00;101595.13;10406401;28;20028;-69
2022/01/27 20:43:26;;;;;;;0.00;0.00;;;;;;;3.64;100.00;101609.00;10400183;28;20257;-69
2022/01/27 20:48:28;;;;;;;0.00;0.00;;;;;;;3.78;100.00;101597.56;10374562;28;20104;-69
2022/01/27 20:53:28;;;;;;;0.00;0.00;;;;;;;3.90;100.00;101603.84;10381830;28;20043;-68
2022/01/27 20:58:29;;;;;;;0.00;0.00;;;;;;;3.91;100.00;101618.75;10415321;28;20113;-68
2022/01/27 21:03:29;;;;;;;0.00;0.00;;;;;;;3.96;100.00;101622.78;10414787;28;20010;-69
2022/01/27 21:08:29;;;;;;;0.00;0.00;;;;;;;3.95;100.00;101628.97;10391181;28;20080;-69
2022/01/27 21:13:30;;;;;;;0.00;0.00;;;;;;;3.94;100.00;101634.38;10382353;28;20018;-68
2022/01/27 21:18:31;;;;;;;0.00;0.00;;;;;;;3.89;100.00;101646.97;10374780;28;20022;-68
2022/01/27 21:23:31;;;;;;;0.00;0.00;;;;;;;3.87;100.00;101647.09;10374871;28;20088;-68
2022/01/27 21:28:31;;;;;;;0.00;0.00;;;;;;;3.82;100.00;101650.00;10413570;28;20104;-68
2022/01/27 21:33:35;;;;;;;0.00;0.00;;;;;;;3.77;100.00;101633.63;10424537;22;20072;-74
2022/01/27 21:38:35;;;;;;;0.00;0.00;;;;;;;3.89;100.00;101641.72;10333510;28;20046;-71
2022/01/27 21:43:36;;;;;;;0.00;0.00;;;;;;;3.91;100.00;101669.66;10339887;28;20036;-71
2022/01/27 21:48:37;;;;;;;0.00;0.00;;;;;;;4.01;100.00;101694.50;10374123;28;20030;-71
2022/01/27 21:53:38;;;;;;;0.00;0.00;;;;;;;4.09;100.00;101699.31;10373615;28;20272;-71
2022/01/27 21:58:39;;;;;;;0.00;0.00;;;;;;;4.09;100.00;101701.94;10373782;28;20393;-70
2022/01/27 22:03:40;;;;;;;0.00;0.00;;;;;;;4.02;100.00;101700.66;10373298;28;20018;-71
2022/01/27 22:08:40;;;;;;;0.00;0.00;;;;;;;3.99;100.00;101700.84;10373397;28;20100;-70
2022/01/27 22:13:40;;;;;;;0.00;0.00;;;;;;;4.04;100.00;101720.69;10372836;28;20033;-71
2022/01/27 22:18:41;;;;;;;0.00;0.00;;;;;;;4.16;100.00;101726.13;10372932;28;20038;-70
2022/01/27 22:23:41;;;;;;;0.00;0.00;;;;;;;4.22;100.00;101734.53;10372550;28;20025;-68
2022/01/27 22:28:44;;;;;;;0.00;0.00;;;;;;;4.26;100.00;101740.44;10360104;28;20026;-70
2022/01/27 22:33:44;;;;;;;0.00;0.00;;;;;;;4.31;100.00;101738.38;10331010;28;20023;-71
2022/01/27 22:38:44;;;;;;;0.00;0.00;;;;;;;4.38;100.00;101754.66;10330505;28;20033;-71
2022/01/27 22:43:45;;;;;;;0.00;0.00;;;;;;;4.36;100.00;101746.81;10337217;28;20373;-71
2022/01/27 22:48:45;;;;;;;0.00;0.00;;;;;;;4.39;100.00;101748.44;10330937;28;20022;-71
2022/01/27 22:53:45;;;;;;;0.00;0.00;;;;;;;4.30;100.00;101761.28;10330012;28;20283;-71
2022/01/27 22:58:46;;;;;;;0.00;0.00;;;;;;;4.20;100.00;101775.13;10330315;28;20022;-71
2022/01/27 23:03:46;;;;;;;0.00;0.00;;;;;;;4.08;100.00;101768.81;10329636;28;20340;-71
2022/01/27 23:08:47;;;;;;;0.00;0.00;;;;;;;4.14;100.00;101783.41;10329920;28;20026;-71
2022/01/27 23:13:49;;;;;;;0.00;0.00;;;;;;;4.11;100.00;101791.50;10329887;28;20386;-71
2022/01/27 23:23:58;;;;;;;0.00;0.00;;;;;;;4.25;100.00;101800.25;10329016;28;20429;-71
2022/01/27 23:29:01;;;;;;;0.00;0.00;;;;;;;4.27;100.00;101805.44;10327669;28;20385;-71
2022/01/27 23:34:03;;;;;;;0.00;0.00;;;;;;;4.29;100.00;101825.50;10328983;28;20074;-71
2022/01/27 23:44:34;;;;;;;0.00;0.00;;;;;;;4.31;100.00;101813.06;10320591;28;20214;-71
2022/01/27 23:50:26;;;;;;;0.00;0.00;;;;;;;4.23;100.00;101825.88;10325371;28;20034;-70
2022/01/27 23:55:10;;;;;;;0.00;0.00;;;;;;;4.20;100.00;101836.63;10318914;28;20129;-71
